Time;durP1;ratioP1;P1;durP2;ratioP2;P2;SDS_P1;SDS_P2;PMS_P1;PMS_P2;Temp;Humidity;BMP_temperature;BMP_pressure;BME280_temperature;BME280_humidity;BME280_pressure;Samples;Min_cycle;Max_cycle;Signal;HPM_P1;HPM_P2
2023/04/08 00:02:23;;;;;;;2.73;2.43;;;;;;;10.31;47.04;102015.13;4991057;28;96902;-50
2023/04/08 00:04:48;;;;;;;4.10;3.10;;;;;;;10.28;47.06;102018.78;4995602;28;107100;-50
2023/04/08 00:07:13;;;;;;;3.40;3.10;;;;;;;10.24;47.17;102018.16;4994192;28;97271;-49
2023/04/08 00:09:39;;;;;;;3.60;3.00;;;;;;;10.27;47.18;102025.50;4993558;28;100689;-50
2023/04/08 00:12:04;;;;;;;2.60;2.40;;;;;;;10.22;47.24;102024.09;4993545;28;97183;-50
2023/04/08 00:14:30;;;;;;;4.60;2.40;;;;;;;10.24;47.23;102026.44;4996177;28;97409;-50
2023/04/08 00:16:56;;;;;;;5.23;2.60;;;;;;;10.29;47.38;102032.06;4991260;28;97159;-50
2023/04/08 00:19:21;;;;;;;3.07;2.87;;;;;;;10.33;47.24;102031.94;4992395;28;97079;-50
2023/04/08 00:21:47;;;;;;;3.30;2.70;;;;;;;10.30;47.37;102022.59;4993078;28;97190;-50
2023/04/08 00:24:12;;;;;;;3.63;2.83;;;;;;;10.24;47.24;102024.41;4993351;28;97147;-49
2023/04/08 00:26:38;;;;;;;4.13;3.20;;;;;;;10.23;47.21;102035.88;4993385;28;97589;-49
2023/04/08 00:29:03;;;;;;;3.23;2.90;;;;;;;10.21;47.43;102038.31;4993995;28;96680;-50
2023/04/08 00:31:29;;;;;;;3.77;2.80;;;;;;;10.24;47.63;102048.44;4993447;28;97107;-49
2023/04/08 00:33:54;;;;;;;3.07;2.80;;;;;;;10.21;47.72;102038.31;4994395;28;97214;-50
2023/04/08 00:36:20;;;;;;;3.00;2.73;;;;;;;10.20;47.79;102037.56;4992947;28;96786;-50
2023/04/08 00:38:45;;;;;;;3.23;3.00;;;;;;;10.22;47.78;102039.88;4992170;28;97058;-50
2023/04/08 00:41:11;;;;;;;4.17;3.47;;;;;;;10.22;47.72;102039.88;4991095;28;96964;-49
2023/04/08 00:43:37;;;;;;;3.73;3.30;;;;;;;10.11;47.93;102034.78;4994516;28;97439;-50
2023/04/08 00:46:03;;;;;;;4.47;3.60;;;;;;;10.11;48.03;102039.53;4989517;28;97161;-49
2023/04/08 00:48:29;;;;;;;5.30;4.13;;;;;;;10.07;48.35;102041.66;4995852;28;97326;-50
2023/04/08 00:50:54;;;;;;;3.53;3.23;;;;;;;10.04;48.28;102037.81;4997096;28;96855;-50
2023/04/08 00:53:19;;;;;;;6.17;4.30;;;;;;;10.02;48.35;102040.25;4995479;28;97272;-50
2023/04/08 00:55:45;;;;;;;4.97;3.20;;;;;;;10.04;48.43;102040.56;4996617;28;97302;-49
2023/04/08 00:58:12;;;;;;;4.30;3.90;;;;;;;10.00;48.62;102030.91;4996975;28;96969;-50
2023/04/08 01:00:42;;;;;;;4.60;3.67;;;;;;;10.00;48.73;102030.91;4995894;28;96822;-49
2023/04/08 01:03:15;;;;;;;3.80;3.50;;;;;;;9.99;48.79;102035.66;4993940;28;98318;-50
2023/04/08 01:05:55;;;;;;;3.07;2.87;;;;;;;10.01;48.91;102033.22;4995740;28;97202;-50
2023/04/08 01:08:24;;;;;;;3.50;3.20;;;;;;;9.97;48.85;102027.09;4997534;28;97166;-50
2023/04/08 01:10:56;;;;;;;4.20;3.80;;;;;;;10.00;49.00;102036.41;4996441;28;97179;-50
2023/04/08 01:13:25;;;;;;;3.37;3.00;;;;;;;9.99;48.94;102023.88;5001976;28;100469;-50
2023/04/08 01:15:51;;;;;;;3.60;3.30;;;;;;;10.02;48.91;102026.50;4994522;28;97249;-49
2023/04/08 01:18:18;;;;;;;5.00;3.43;;;;;;;10.03;48.92;102035.50;4997333;28;97470;-50
2023/04/08 01:20:44;;;;;;;4.93;3.40;;;;;;;10.05;49.02;102031.06;4998139;28;97128;-50
2023/04/08 01:23:19;;;;;;;4.40;4.00;;;;;;;10.00;50.19;102026.19;4994245;28;97454;-50
2023/04/08 01:25:53;;;;;;;4.80;3.73;;;;;;;9.91;50.33;102037.16;4994652;28;97196;-50
2023/04/08 01:28:21;;;;;;;3.87;3.40;;;;;;;9.85;49.52;102036.19;4994021;28;97008;-49
2023/04/08 01:30:47;;;;;;;4.00;3.33;;;;;;;9.91;49.40;102028.91;4994959;28;97120;-50
2023/04/08 01:33:15;;;;;;;4.87;3.80;;;;;;;9.92;49.40;102024.94;4996594;28;97454;-49
2023/04/08 01:35:42;;;;;;;3.60;3.07;;;;;;;9.92;49.52;102021.41;4997183;28;97127;-49
2023/04/08 01:38:09;;;;;;;5.50;3.50;;;;;;;9.90;49.45;102027.38;4997252;28;96999;-49
2023/04/08 01:40:38;;;;;;;4.63;4.00;;;;;;;9.83;49.57;102022.94;4998136;28;97275;-49
2023/04/08 01:43:06;;;;;;;3.40;3.10;;;;;;;9.81;49.81;102028.13;4997960;28;97487;-50
2023/04/08 01:45:32;;;;;;;3.73;3.40;;;;;;;9.82;49.79;102028.88;4996363;28;97304;-50
2023/04/08 01:48:00;;;;;;;4.17;3.70;;;;;;;9.81;49.99;102028.13;4999745;28;100234;-49
2023/04/08 01:50:26;;;;;;;4.50;3.83;;;;;;;9.80;49.90;102021.09;4999691;28;96704;-50
2023/04/08 01:52:53;;;;;;;4.90;3.87;;;;;;;9.78;50.08;102017.28;4996997;28;96891;-50
2023/04/08 01:55:19;;;;;;;6.03;4.30;;;;;;;9.80;50.07;102012.84;4994617;28;97775;-50
2023/04/08 01:57:49;;;;;;;4.20;3.40;;;;;;;9.80;50.22;102012.84;4992772;28;97058;-50
2023/04/08 02:00:19;;;;;;;3.37;2.93;;;;;;;9.82;50.32;102012.38;4993026;28;97413;-49
2023/04/08 02:02:46;;;;;;;5.30;4.33;;;;;;;9.85;50.19;102005.22;4995867;28;97089;-49
2023/04/08 02:05:12;;;;;;;4.13;3.67;;;;;;;9.79;50.20;102002.28;4995148;28;97157;-49
2023/04/08 02:07:37;;;;;;;7.20;4.10;;;;;;;9.76;50.34;102005.97;4996752;28;97139;-50
2023/04/08 02:10:03;;;;;;;4.17;3.77;;;;;;;9.83;50.35;101998.19;4995754;28;96928;-50
2023/04/08 02:12:28;;;;;;;6.23;4.50;;;;;;;9.87;50.21;101995.31;4997113;28;97298;-49
2023/04/08 02:14:56;;;;;;;4.10;3.47;;;;;;;9.88;50.10;101988.59;4997304;28;96991;-50
2023/04/08 02:17:54;;;;;;;4.90;3.90;;;;;;;9.80;52.58;101999.13;4996998;28;97206;-50
2023/04/08 02:20:30;;;;;;;5.43;4.47;;;;;;;9.73;50.80;102001.38;4986432;28;97066;-50
2023/04/08 02:23:02;;;;;;;4.53;3.90;;;;;;;9.76;50.69;101997.72;4993135;28;97306;-50
2023/04/08 02:25:29;;;;;;;3.77;3.47;;;;;;;9.85;50.46;102007.97;4998021;28;97261;-49
2023/04/08 02:27:56;;;;;;;5.00;3.80;;;;;;;9.85;50.45;102005.97;4996297;28;96653;-50
2023/04/08 02:30:25;;;;;;;5.27;4.07;;;;;;;9.87;50.54;102011.03;4996702;28;98506;-50
2023/04/08 02:32:53;;;;;;;6.60;4.60;;;;;;;9.86;50.52;102013.00;4994072;28;97441;-50
2023/04/08 02:35:19;;;;;;;5.60;4.20;;;;;;;9.80;50.51;102012.84;4995999;28;97227;-50
2023/04/08 02:37:46;;;;;;;4.63;3.50;;;;;;;9.80;50.85;102015.59;4994288;28;96986;-50
2023/04/08 02:40:32;;;;;;;5.23;4.20;;;;;;;9.77;52.42;102012.97;4994362;28;97102;-50
2023/04/08 02:42:58;;;;;;;3.80;3.50;;;;;;;9.78;50.61;102011.78;4994666;28;97154;-49
2023/04/08 02:45:28;;;;;;;8.97;5.50;;;;;;;9.77;50.91;102016.50;4996871;28;97280;-50
2023/04/08 02:47:54;;;;;;;4.23;3.80;;;;;;;9.77;50.85;102026.72;4997138;28;97409;-48
2023/04/08 02:50:19;;;;;;;8.30;5.00;;;;;;;9.77;51.21;102023.97;4996064;28;97565;-50
2023/04/08 02:52:45;;;;;;;6.07;4.47;;;;;;;9.78;50.86;102020.03;4993408;28;105063;-49
2023/04/08 02:55:10;;;;;;;7.43;4.60;;;;;;;9.80;50.92;102020.31;4994207;28;97135;-50
2023/04/08 02:57:38;;;;;;;5.63;3.97;;;;;;;9.80;50.91;102028.56;4997741;28;97097;-49
2023/04/08 03:00:04;;;;;;;5.43;4.60;;;;;;;9.80;51.04;102026.59;4994623;28;96893;-50
2023/04/08 03:02:30;;;;;;;5.67;4.53;;;;;;;9.85;51.05;102035.47;4994215;28;97381;-50
2023/04/08 03:04:55;;;;;;;6.43;4.60;;;;;;;9.81;51.24;102025.38;4994530;28;106159;-50
2023/04/08 03:07:20;;;;;;;6.47;4.63;;;;;;;9.86;51.22;102031.47;4994185;28;97146;-50
2023/04/08 03:09:46;;;;;;;8.70;5.20;;;;;;;9.83;51.37;102038.66;4991188;28;96933;-50
2023/04/08 03:12:11;;;;;;;5.57;4.47;;;;;;;9.81;51.14;102030.88;4991879;28;106922;-50
2023/04/08 03:14:36;;;;;;;6.17;4.60;;;;;;;9.82;51.04;102032.41;4997046;28;97283;-50
2023/04/08 03:17:01;;;;;;;5.07;4.57;;;;;;;9.84;51.17;102029.19;4995345;28;98884;-49
2023/04/08 03:19:27;;;;;;;7.37;4.60;;;;;;;9.80;51.09;102034.06;4994487;28;96971;-50
2023/04/08 03:21:52;;;;;;;7.60;4.47;;;;;;;9.76;51.28;102030.69;4993152;28;108452;-50
2023/04/08 03:24:17;;;;;;;6.43;4.87;;;;;;;9.80;51.25;102039.56;4993306;28;108649;-50
2023/04/08 03:26:43;;;;;;;6.20;4.70;;;;;;;9.78;51.46;102042.75;4992805;28;97221;-50
2023/04/08 03:29:08;;;;;;;5.80;4.40;;;;;;;9.82;51.36;102043.41;4994023;28;97234;-49
2023/04/08 03:31:34;;;;;;;6.37;4.20;;;;;;;9.86;51.53;102046.00;4994915;28;97271;-50
2023/04/08 03:34:00;;;;;;;5.90;4.30;;;;;;;9.85;51.44;102043.72;4994291;28;97574;-49
2023/04/08 03:36:25;;;;;;;8.20;5.10;;;;;;;9.86;51.39;102051.50;4995045;28;97115;-49
2023/04/08 03:38:51;;;;;;;4.87;3.80;;;;;;;9.85;51.35;102043.72;4993911;28;97096;-50
2023/04/08 03:41:16;;;;;;;9.83;5.10;;;;;;;9.83;51.43;102053.16;4992755;28;96915;-50
2023/04/08 03:43:41;;;;;;;6.47;4.57;;;;;;;9.84;51.54;102042.94;4995271;28;97026;-50
2023/04/08 03:46:07;;;;;;;5.77;4.90;;;;;;;9.79;51.66;102049.03;4997473;28;97318;-50
2023/04/08 03:48:32;;;;;;;9.03;5.23;;;;;;;9.78;51.71;102053.75;4990909;28;96838;-50
2023/04/08 03:50:57;;;;;;;7.57;5.90;;;;;;;9.75;52.00;102046.41;4993387;28;96796;-50
2023/04/08 03:53:23;;;;;;;6.97;5.00;;;;;;;9.71;51.81;102042.28;4992124;28;97156;-50
2023/04/08 03:55:50;;;;;;;6.80;5.70;;;;;;;9.70;51.90;102046.22;4996957;28;97304;-50
2023/04/08 03:58:15;;;;;;;6.30;4.93;;;;;;;9.66;52.02;102042.84;4992396;28;97349;-50
2023/04/08 04:00:40;;;;;;;6.87;5.23;;;;;;;9.68;52.19;102043.94;4996671;28;97167;-50
2023/04/08 04:03:06;;;;;;;8.47;5.30;;;;;;;9.71;52.10;102048.53;4996622;28;97156;-50
2023/04/08 04:05:31;;;;;;;7.07;5.20;;;;;;;9.72;52.04;102041.03;4995917;28;96671;-50
2023/04/08 04:07:57;;;;;;;7.77;5.37;;;;;;;9.76;52.08;102041.69;4995915;28;99241;-50
2023/04/08 04:10:22;;;;;;;10.27;5.83;;;;;;;9.76;51.79;102045.19;4991973;28;97173;-50
2023/04/08 04:12:49;;;;;;;8.73;5.90;;;;;;;9.71;52.18;102043.06;4996448;28;96945;-50
2023/04/08 04:15:14;;;;;;;9.80;5.80;;;;;;;9.64;52.63;102048.81;4993020;28;96972;-49
2023/04/08 04:17:40;;;;;;;9.63;6.00;;;;;;;9.60;52.61;102055.66;4995259;28;97455;-52
2023/04/08 04:20:06;;;;;;;7.87;5.40;;;;;;;9.59;52.46;102065.88;4992707;28;106593;-50
2023/04/08 04:22:31;;;;;;;8.63;5.23;;;;;;;9.60;52.50;102067.44;4992281;28;97057;-50
2023/04/08 04:24:56;;;;;;;7.00;5.13;;;;;;;9.60;52.63;102069.41;4990874;28;97043;-50
2023/04/08 04:27:21;;;;;;;7.90;5.80;;;;;;;9.62;52.56;102073.22;4990890;28;99746;-50
2023/04/08 04:29:47;;;;;;;9.43;6.00;;;;;;;9.66;52.63;102084.84;4994457;28;97732;-50
2023/04/08 04:32:12;;;;;;;6.73;5.17;;;;;;;9.69;52.54;102080.44;4993654;28;105839;-50
2023/04/08 04:34:37;;;;;;;8.80;5.47;;;;;;;9.64;52.30;102083.75;4995295;28;96632;-50
2023/04/08 04:37:03;;;;;;;8.37;5.83;;;;;;;9.58;52.58;102078.09;4993722;28;97494;-50
2023/04/08 04:39:28;;;;;;;8.60;6.13;;;;;;;9.61;52.62;102079.94;4993820;28;97393;-50
2023/04/08 04:41:54;;;;;;;11.10;5.40;;;;;;;9.61;52.94;102079.94;4992446;28;106894;-50
2023/04/08 04:44:19;;;;;;;9.73;6.07;;;;;;;9.64;52.71;102092.00;4994478;28;97172;-49
2023/04/08 04:46:44;;;;;;;10.03;5.97;;;;;;;9.63;52.88;102088.50;4996483;28;97311;-50
2023/04/08 04:49:10;;;;;;;6.83;4.77;;;;;;;9.65;52.84;102093.56;4991535;28;97350;-49
2023/04/08 04:51:35;;;;;;;6.47;4.63;;;;;;;9.65;53.00;102088.06;4992634;28;110211;-50
2023/04/08 04:54:00;;;;;;;8.40;6.20;;;;;;;9.66;52.80;102097.81;4994629;28;97001;-50
2023/04/08 04:56:26;;;;;;;8.30;5.70;;;;;;;9.66;52.63;102095.06;4992458;28;97097;-50
2023/04/08 04:58:51;;;;;;;10.70;5.80;;;;;;;9.62;52.92;102095.22;4991784;28;96769;-50
2023/04/08 05:01:17;;;;;;;9.43;6.00;;;;;;;9.62;52.86;102094.44;4992466;28;103721;-49
2023/04/08 05:03:42;;;;;;;7.10;5.60;;;;;;;9.62;53.04;102095.22;4993114;28;97497;-49
2023/04/08 05:06:08;;;;;;;7.63;5.57;;;;;;;9.57;53.03;102098.53;4995240;28;97107;-50
2023/04/08 05:08:33;;;;;;;9.67;5.70;;;;;;;9.57;53.03;102095.78;4993436;28;100053;-50
2023/04/08 05:11:01;;;;;;;7.30;5.97;;;;;;;9.59;53.05;102101.59;4990711;28;103806;-50
2023/04/08 05:13:27;;;;;;;8.10;5.67;;;;;;;9.63;53.09;102107.72;4992022;28;97202;-49
2023/04/08 05:15:53;;;;;;;8.20;5.43;;;;;;;9.70;53.02;102106.69;4994053;28;96878;-50
2023/04/08 05:18:18;;;;;;;6.50;5.30;;;;;;;9.73;52.84;102114.81;4992660;28;97077;-50
2023/04/08 05:20:44;;;;;;;6.03;4.70;;;;;;;9.71;52.87;102110.97;4993096;28;97121;-50
2023/04/08 05:23:09;;;;;;;9.03;5.47;;;;;;;9.73;52.95;102111.28;4993436;28;97193;-49
2023/04/08 05:25:35;;;;;;;8.03;5.30;;;;;;;9.69;53.12;102110.66;4993487;28;96879;-50
2023/04/08 05:28:00;;;;;;;10.30;6.07;;;;;;;9.63;53.45;102109.72;4992897;28;97001;-50
2023/04/08 05:30:26;;;;;;;9.50;5.93;;;;;;;9.60;53.29;102116.09;4993914;28;97247;-50
2023/04/08 05:32:51;;;;;;;6.40;4.80;;;;;;;9.62;53.36;102121.91;4994650;28;96700;-50
2023/04/08 05:35:16;;;;;;;6.53;5.30;;;;;;;9.60;53.35;102121.59;4997975;28;97307;-50
2023/04/08 05:37:42;;;;;;;8.00;5.73;;;;;;;9.57;53.77;102117.78;4997303;28;97242;-50
2023/04/08 05:40:07;;;;;;;9.90;5.80;;;;;;;9.58;53.57;102132.28;4998626;28;97127;-50
2023/04/08 05:42:33;;;;;;;8.13;5.67;;;;;;;9.62;53.50;102133.69;4997726;28;96713;-50
2023/04/08 05:44:58;;;;;;;6.27;4.93;;;;;;;9.66;53.56;102131.56;4997232;28;97196;-49
2023/04/08 05:47:23;;;;;;;7.70;5.30;;;;;;;9.66;53.95;102125.28;4995324;28;97231;-49
2023/04/08 05:49:48;;;;;;;7.90;5.60;;;;;;;9.62;53.94;102138.41;4997013;28;102683;-49
2023/04/08 05:52:15;;;;;;;7.40;5.10;;;;;;;9.62;53.82;102128.19;4997146;28;96690;-50
2023/04/08 05:54:44;;;;;;;7.63;5.33;;;;;;;9.67;54.10;102129.59;5004560;28;97350;-50
2023/04/08 05:57:10;;;;;;;7.20;5.60;;;;;;;9.72;53.78;102137.22;4995067;28;97063;-50
2023/04/08 05:59:35;;;;;;;8.63;5.57;;;;;;;9.77;53.94;102134.69;4994541;28;97266;-50
2023/04/08 06:02:00;;;;;;;7.43;5.60;;;;;;;9.79;53.91;102136.97;4991796;28;102783;-50
2023/04/08 06:04:26;;;;;;;8.70;6.47;;;;;;;9.74;53.96;102140.31;4994199;28;104118;-50
2023/04/08 06:06:51;;;;;;;7.77;5.83;;;;;;;9.77;53.96;102142.94;4994914;28;103147;-50
2023/04/08 06:09:16;;;;;;;7.50;5.03;;;;;;;9.82;54.01;102147.84;4995653;28;97385;-50
2023/04/08 06:11:42;;;;;;;8.17;5.90;;;;;;;9.89;53.97;102144.06;4996342;28;97041;-49
2023/04/08 06:14:07;;;;;;;7.20;5.47;;;;;;;9.93;53.74;102165.91;4996741;28;97165;-50
2023/04/08 06:16:32;;;;;;;9.30;6.20;;;;;;;9.93;53.85;102157.66;4996152;28;105410;-49
2023/04/08 06:18:59;;;;;;;7.53;5.00;;;;;;;9.92;54.03;102156.88;4994081;28;96962;-50
2023/04/08 06:21:24;;;;;;;8.43;6.07;;;;;;;9.99;54.06;102153.09;4996878;28;96692;-49
2023/04/08 06:23:49;;;;;;;15.60;6.70;;;;;;;10.03;53.95;102157.25;4994552;28;97250;-51
2023/04/08 06:26:15;;;;;;;6.13;5.23;;;;;;;10.10;54.00;102156.22;4992233;28;106734;-50
2023/04/08 06:28:40;;;;;;;7.63;5.27;;;;;;;10.13;54.00;102164.38;4996723;28;97796;-50
2023/04/08 06:31:06;;;;;;;7.53;5.70;;;;;;;10.14;54.05;102162.38;4994997;28;97076;-50
2023/04/08 06:33:31;;;;;;;10.00;6.90;;;;;;;10.05;54.13;102171.31;4994572;28;97303;-50
2023/04/08 06:36:03;;;;;;;9.00;6.37;;;;;;;9.95;55.17;102169.75;4994450;28;107218;-50
2023/04/08 06:38:30;;;;;;;7.63;5.60;;;;;;;9.96;54.57;102168.50;4995088;28;96811;-50
2023/04/08 06:40:56;;;;;;;9.70;5.83;;;;;;;9.94;54.62;102170.22;4993176;28;96738;-50
2023/04/08 06:43:21;;;;;;;9.17;6.57;;;;;;;9.93;54.41;102174.94;4995644;28;97320;-50
2023/04/08 06:45:47;;;;;;;9.63;5.47;;;;;;;9.94;54.56;102173.69;4994512;28;97101;-50
2023/04/08 06:48:12;;;;;;;7.03;5.80;;;;;;;10.02;54.45;102185.97;4994189;28;103376;-49
2023/04/08 06:50:37;;;;;;;8.43;5.90;;;;;;;9.95;54.86;102182.72;4995582;28;97554;-50
2023/04/08 06:53:02;;;;;;;7.90;6.10;;;;;;;10.00;54.78;102182.16;4996179;28;97103;-50
2023/04/08 06:55:28;;;;;;;7.17;5.70;;;;;;;10.02;54.56;102183.22;4995554;28;97348;-50
2023/04/08 06:57:53;;;;;;;5.87;5.13;;;;;;;10.05;54.58;102185.06;4992243;28;111452;-50
2023/04/08 07:00:18;;;;;;;7.07;5.10;;;;;;;10.14;54.49;102187.88;4993340;28;97220;-50
2023/04/08 07:02:44;;;;;;;7.43;5.97;;;;;;;10.17;54.34;102189.75;4995871;28;96940;-49
2023/04/08 07:05:10;;;;;;;7.23;4.87;;;;;;;10.27;54.28;102188.56;4994632;28;97995;-49
2023/04/08 07:07:35;;;;;;;9.17;6.10;;;;;;;10.27;54.40;102194.06;4996024;28;96775;-49
2023/04/08 07:10:00;;;;;;;6.40;5.17;;;;;;;10.17;54.51;102188.97;4996082;28;97048;-49
2023/04/08 07:12:26;;;;;;;7.83;6.00;;;;;;;10.18;54.53;102196.00;4994156;28;97208;-50
2023/04/08 07:14:52;;;;;;;10.77;5.37;;;;;;;10.26;54.54;102195.28;4995128;28;97611;-50
2023/04/08 07:17:17;;;;;;;11.40;6.17;;;;;;;10.33;54.53;102194.25;4996852;28;97208;-50
2023/04/08 07:19:43;;;;;;;8.27;6.00;;;;;;;10.33;54.49;102197.75;4997567;28;96695;-49
2023/04/08 07:22:08;;;;;;;7.00;5.50;;;;;;;10.29;54.66;102199.88;4993451;28;96703;-51
2023/04/08 07:24:33;;;;;;;9.30;5.73;;;;;;;10.29;54.55;102201.84;4994652;28;97370;-50
2023/04/08 07:26:59;;;;;;;7.30;5.80;;;;;;;10.35;54.55;102208.31;4994701;28;97606;-50
2023/04/08 07:29:24;;;;;;;6.97;5.00;;;;;;;10.39;54.41;102200.69;4992002;28;97072;-50
2023/04/08 07:31:50;;;;;;;10.30;6.80;;;;;;;10.40;54.65;102205.72;4993707;28;100336;-51
2023/04/08 07:34:16;;;;;;;8.47;6.50;;;;;;;10.33;54.84;102214.25;4993424;28;96666;-50
2023/04/08 07:36:41;;;;;;;8.77;5.93;;;;;;;10.38;54.61;102202.66;4988230;28;97599;-50
2023/04/08 07:39:07;;;;;;;7.37;5.90;;;;;;;10.52;54.66;102204.84;4993350;28;96889;-50
2023/04/08 07:41:32;;;;;;;6.40;5.53;;;;;;;10.64;54.49;102205.19;4991905;28;97550;-50
2023/04/08 07:43:57;;;;;;;7.77;5.27;;;;;;;10.72;54.26;102204.47;4995644;28;96859;-50
2023/04/08 07:46:22;;;;;;;8.73;6.27;;;;;;;10.73;54.38;102211.47;4993208;28;97198;-50
2023/04/08 07:48:48;;;;;;;7.50;5.83;;;;;;;10.72;54.53;102209.97;4993287;28;96806;-50
2023/04/08 07:51:13;;;;;;;9.67;5.80;;;;;;;10.68;54.35;102227.84;4995423;28;98761;-50
2023/04/08 07:53:39;;;;;;;8.80;6.00;;;;;;;10.72;54.38;102201.69;4992560;28;100579;-50
2023/04/08 07:56:11;;;;;;;8.50;5.93;;;;;;;10.81;55.17;102209.22;4996236;28;97081;-50
2023/04/08 07:58:36;;;;;;;7.00;5.40;;;;;;;10.86;54.27;102214.09;4992121;28;96847;-50
2023/04/08 08:01:02;;;;;;;5.93;5.23;;;;;;;10.93;54.13;102208.31;4993290;28;96973;-50
2023/04/08 08:03:27;;;;;;;7.70;6.20;;;;;;;11.04;54.20;102214.13;4991538;28;97135;-49
2023/04/08 08:05:53;;;;;;;9.90;7.37;;;;;;;11.02;54.14;102213.84;4997248;28;97143;-53
2023/04/08 08:08:18;;;;;;;8.83;6.37;;;;;;;11.01;54.11;102217.78;4993443;28;96794;-50
2023/04/08 08:10:43;;;;;;;8.73;6.17;;;;;;;10.95;54.06;102231.41;4992203;28;97539;-50
2023/04/08 08:13:09;;;;;;;9.63;6.37;;;;;;;10.87;54.44;102234.91;4992169;28;97206;-50
2023/04/08 08:15:34;;;;;;;9.23;5.40;;;;;;;10.85;54.43;102234.63;4994520;28;96726;-50
2023/04/08 08:18:00;;;;;;;9.80;6.70;;;;;;;10.91;54.57;102241.03;4994409;28;97336;-50
2023/04/08 08:20:26;;;;;;;7.40;5.60;;;;;;;10.95;54.29;102247.16;4995192;28;97266;-50
2023/04/08 08:22:51;;;;;;;9.90;6.50;;;;;;;10.91;54.30;102249.31;4992904;28;96860;-50
2023/04/08 08:25:16;;;;;;;8.60;6.47;;;;;;;10.89;54.78;102247.00;4993220;28;97158;-51
2023/04/08 08:27:42;;;;;;;8.60;6.07;;;;;;;10.84;54.63;102249.59;4995275;28;96670;-49
2023/04/08 08:30:08;;;;;;;11.73;5.73;;;;;;;10.81;55.00;102253.25;4992211;28;96923;-50
2023/04/08 08:32:34;;;;;;;7.53;6.10;;;;;;;10.85;54.80;102253.88;4990784;28;97547;-50
2023/04/08 08:35:00;;;;;;;8.37;6.30;;;;;;;10.87;54.48;102254.19;4992833;28;97265;-50
2023/04/08 08:37:25;;;;;;;9.20;6.20;;;;;;;10.87;54.69;102254.19;4993111;28;98207;-53
2023/04/08 08:39:50;;;;;;;8.90;6.23;;;;;;;10.88;54.60;102250.19;4991432;28;96942;-50
2023/04/08 08:42:23;;;;;;;8.93;6.00;;;;;;;10.89;54.66;102255.28;4991825;28;97399;-50
2023/04/08 08:44:48;;;;;;;8.10;5.83;;;;;;;11.00;54.46;102265.84;4992397;28;97377;-49
2023/04/08 08:47:14;;;;;;;8.47;6.23;;;;;;;11.08;54.39;102258.81;4993333;28;97078;-50
2023/04/08 08:49:40;;;;;;;7.77;6.33;;;;;;;11.12;54.41;102262.97;4989437;28;96953;-50
2023/04/08 08:52:06;;;;;;;10.40;6.60;;;;;;;11.19;54.34;102268.19;4994884;28;97779;-50
2023/04/08 08:54:31;;;;;;;8.13;6.20;;;;;;;11.22;54.43;102277.53;4993262;28;97176;-50
2023/04/08 08:56:56;;;;;;;8.07;6.07;;;;;;;11.20;54.54;102269.69;4992549;28;96704;-50
2023/04/08 08:59:22;;;;;;;8.40;5.93;;;;;;;11.35;54.38;102269.88;4991364;28;97293;-50
2023/04/08 09:01:47;;;;;;;6.70;5.03;;;;;;;11.45;54.16;102282.44;4991061;28;97413;-49
2023/04/08 09:04:15;;;;;;;7.30;6.20;;;;;;;11.41;53.98;102276.31;4992507;28;97141;-50
2023/04/08 09:06:42;;;;;;;7.97;6.57;;;;;;;11.36;54.10;102273.41;4991534;28;97090;-50
2023/04/08 09:09:10;;;;;;;7.73;4.90;;;;;;;11.39;54.17;102276.00;4993706;28;96906;-50
2023/04/08 09:11:37;;;;;;;8.33;5.67;;;;;;;11.48;54.18;102278.00;4999403;28;97408;-50
2023/04/08 09:14:03;;;;;;;6.90;5.40;;;;;;;11.56;54.09;102279.22;4999295;28;97889;-50
2023/04/08 09:16:29;;;;;;;13.43;6.30;;;;;;;11.47;54.17;102290.25;4995984;28;97098;-50
2023/04/08 09:19:08;;;;;;;10.67;6.20;;;;;;;11.51;54.64;102285.38;4998635;28;97251;-50
2023/04/08 09:21:34;;;;;;;9.07;7.03;;;;;;;11.55;53.97;102292.25;4999475;28;97106;-50
2023/04/08 09:23:59;;;;;;;7.47;6.63;;;;;;;11.60;54.07;102293.66;4994824;28;97710;-50
2023/04/08 09:26:26;;;;;;;7.00;5.77;;;;;;;11.69;54.10;102296.41;4997216;28;96989;-50
2023/04/08 09:29:01;;;;;;;7.67;5.90;;;;;;;11.77;54.13;102294.91;4995612;28;97234;-50
2023/04/08 09:31:43;;;;;;;8.30;6.50;;;;;;;11.84;53.93;102294.56;4995683;28;97361;-49
2023/04/08 09:34:18;;;;;;;8.33;6.37;;;;;;;11.83;54.27;102304.06;4999696;28;96766;-50
2023/04/08 09:36:43;;;;;;;6.50;5.40;;;;;;;11.86;53.80;102303.91;4997234;28;97281;-50
2023/04/08 09:39:09;;;;;;;6.97;5.83;;;;;;;11.84;53.66;102300.84;4997840;28;97034;-49
2023/04/08 09:41:36;;;;;;;6.07;5.43;;;;;;;11.90;53.72;102310.03;4994843;28;97073;-50
2023/04/08 09:44:05;;;;;;;7.97;6.30;;;;;;;11.83;53.96;102302.09;4995139;28;97190;-50
2023/04/08 09:47:00;;;;;;;8.50;6.27;;;;;;;11.74;54.59;102307.59;4995314;28;97493;-50
2023/04/08 09:49:32;;;;;;;8.10;5.53;;;;;;;11.75;54.41;102306.38;4993810;28;96825;-50
2023/04/08 09:52:10;;;;;;;6.63;5.43;;;;;;;11.84;54.59;102317.41;4997004;28;100313;-50
2023/04/08 09:54:49;;;;;;;7.60;5.30;;;;;;;11.84;54.92;102303.59;4993641;28;96762;-50
2023/04/08 09:57:24;;;;;;;6.63;5.93;;;;;;;11.88;54.03;102306.97;4998111;28;97117;-49
2023/04/08 10:00:03;;;;;;;6.97;5.60;;;;;;;12.00;54.40;102314.34;4994832;28;96996;-50
2023/04/08 10:02:32;;;;;;;7.83;5.40;;;;;;;12.02;53.68;102322.13;4993916;28;97223;-50
2023/04/08 10:05:00;;;;;;;7.90;5.80;;;;;;;11.92;53.69;102304.84;4998626;28;96926;-50
2023/04/08 10:07:26;;;;;;;7.00;6.27;;;;;;;11.87;53.89;102310.19;4994257;28;97114;-50
2023/04/08 10:09:51;;;;;;;7.80;6.40;;;;;;;11.81;53.73;102307.31;4997869;28;97073;-50
2023/04/08 10:12:17;;;;;;;8.37;6.80;;;;;;;11.84;53.82;102309.13;4995557;28;96886;-49
2023/04/08 10:15:22;;;;;;;8.67;6.60;;;;;;;11.96;54.74;102308.22;4996049;28;97307;-50
2023/04/08 10:17:48;;;;;;;8.80;6.40;;;;;;;12.04;53.63;102314.94;4995836;28;97157;-50
2023/04/08 10:20:34;;;;;;;6.47;5.50;;;;;;;12.02;54.23;102311.09;5001029;28;98936;-50
2023/04/08 10:23:04;;;;;;;6.73;5.70;;;;;;;12.03;53.73;102327.19;4996842;28;97389;-50
2023/04/08 10:25:31;;;;;;;6.57;5.30;;;;;;;12.07;53.74;102323.50;4995941;28;97096;-49
2023/04/08 10:27:57;;;;;;;7.60;6.00;;;;;;;12.10;53.80;102323.34;4994213;28;96787;-50
2023/04/08 10:30:32;;;;;;;10.10;6.13;;;;;;;12.16;54.42;102337.31;4997037;28;97150;-50
2023/04/08 10:33:02;;;;;;;9.30;6.40;;;;;;;12.14;53.73;102325.97;4994326;28;97839;-50
2023/04/08 10:35:33;;;;;;;8.97;6.37;;;;;;;12.06;53.72;102333.78;4993115;28;97206;-50
2023/04/08 10:37:59;;;;;;;8.67;6.30;;;;;;;11.96;53.77;102335.03;4993960;28;96827;-50
2023/04/08 10:40:25;;;;;;;8.07;5.77;;;;;;;11.94;53.74;102321.69;4995235;28;97498;-50
2023/04/08 10:42:57;;;;;;;9.80;6.83;;;;;;;11.99;54.01;102323.81;4995239;28;97105;-49
2023/04/08 10:45:23;;;;;;;12.20;7.13;;;;;;;11.87;53.98;102326.75;4996457;28;97589;-50
2023/04/08 10:47:48;;;;;;;9.23;6.47;;;;;;;11.87;54.10;102327.53;4997712;28;97126;-50
2023/04/08 10:50:15;;;;;;;9.20;6.43;;;;;;;11.96;54.12;102327.53;5000123;28;97390;-50
2023/04/08 10:52:53;;;;;;;7.07;5.80;;;;;;;12.01;55.07;102329.63;4992615;28;98575;-50
2023/04/08 10:55:23;;;;;;;7.10;6.27;;;;;;;11.91;54.54;102324.59;4998044;28;97626;-50
2023/04/08 10:57:50;;;;;;;14.97;7.60;;;;;;;11.81;54.26;102312.81;4995958;28;97128;-50
2023/04/08 11:00:30;;;;;;;8.70;6.50;;;;;;;11.88;54.49;102322.78;4996653;28;97236;-50
2023/04/08 11:03:00;;;;;;;8.43;6.57;;;;;;;11.87;54.21;102312.97;4993728;28;97202;-50
2023/04/08 11:05:26;;;;;;;9.33;6.27;;;;;;;11.88;54.12;102320.75;4993847;28;97467;-50
2023/04/08 11:07:51;;;;;;;10.50;6.57;;;;;;;11.88;54.17;102322.78;4995578;28;97135;-50
2023/04/08 11:10:17;;;;;;;11.50;7.30;;;;;;;11.84;54.29;102330.41;4997268;28;97122;-50
2023/04/08 11:12:43;;;;;;;8.57;6.20;;;;;;;11.81;54.32;102321.09;4992958;28;97307;-50
2023/04/08 11:15:09;;;;;;;9.17;6.97;;;;;;;11.81;54.14;102329.38;4994909;28;97530;-50
2023/04/08 11:17:35;;;;;;;10.50;7.20;;;;;;;11.81;54.47;102331.34;4996604;28;96729;-50
2023/04/08 11:20:05;;;;;;;9.30;6.10;;;;;;;11.98;54.38;102333.34;4994489;28;97954;-50
2023/04/08 11:22:32;;;;;;;9.97;7.30;;;;;;;12.07;54.34;102337.31;4994872;28;97564;-50
2023/04/08 11:24:58;;;;;;;8.73;5.50;;;;;;;12.11;54.08;102338.69;4994543;28;96767;-50
2023/04/08 11:27:25;;;;;;;9.80;6.83;;;;;;;12.06;53.93;102333.78;4993833;28;97265;-50